Beallsville, OH (43716)

11:40 AM EST on February 06, 2016 (GMT -0500)
Jerusalem | | Change Station
CLOSE
Current Station
Personal Weather Station
Location: Jerusalem, OH
Elevation: 1253 ft
Nearby Weather Stations

Elev 1253 ft 39.86 °N, 81.11 °W | Updated 13 seconds ago

Clear
Clear
38.3 °F
Feels Like 31 °F
N
10.5
Wind Variable Wind from SW
Gusts 13.0 mph

Today
High -- | Low -- °F
--% Chance of Precip.
Yesterday
High -- | Low -- °F
Precip. -- in
Pressure 30.36 in
Visibility 10.0 miles
Clouds Clear
Windchill 31 °F
Dew Point 23 °F
Humidity 54%
Rainfall 0.00 in
Snow Depth Not available.
7:27 AM 5:48 PM
Waning Crescent, 5% visible
METAR KHLG 061453Z 23007KT 10SM CLR 01/M09 A3031 RMK AO2 SLP279 T00111089 51005
Pressure 30.36 in
Visibility 10.0 miles
Clouds Clear
Windchill 31 °F
Dew Point 23 °F
Humidity 54%
Rainfall 0.00 in
Snow Depth Not available.
7:27 AM 5:48 PM
Waning Crescent, 5% visible
METAR KHLG 061453Z 23007KT 10SM CLR 01/M09 A3031 RMK AO2 SLP279 T00111089 51005

10-Day Weather Forecast

Almanac

Astronomy

Feb. 06, 2016 Rise Set
Actual Time
Civil Twilight
Nautical Twilight
Astronomical Twilight
Moon
Length of Visible Light
Length of Day
Tomorrow will be .
, % of the Moon is Illuminated

Today's Extremes

State Highs State Lows

Community

WunderPhotos

Upload Photos

1,891,015 photos uploaded!

WunderBlog® & News

Nearby

Air Quality

  Air Quality AQ Index Pollutant
Not available.

Snow Depth

Station Depth Elevation

Earthquake Activity

City Distance Mag. Time & Date
Minimum magnitude displayed is 2.5.

Coastal Water Temperatures

Place Temperature

Stations

Nearby Weather Stations

Station Location Temp. Windchill Dew Point Humidity Wind Precip. Elev Updated Type
                   

Watches & Warnings

There are currently no watches in effect.